sensor_id;sensor_type;location;lat;lon;timestamp;P1;durP1;ratioP1;P2;durP2;ratioP2
48114;SDS011;33903;44.704;10.448;2024-03-07T00:02:13;7.75;;;2.40;;
48114;SDS011;33903;44.704;10.448;2024-03-07T00:05:21;3.70;;;2.17;;
48114;SDS011;33903;44.704;10.448;2024-03-07T00:08:29;4.25;;;2.45;;
48114;SDS011;33903;44.704;10.448;2024-03-07T00:11:35;3.78;;;2.10;;
48114;SDS011;33903;44.704;10.448;2024-03-07T00:14:39;4.32;;;2.47;;
48114;SDS011;33903;44.704;10.448;2024-03-07T00:17:44;9.48;;;2.80;;
48114;SDS011;33903;44.704;10.448;2024-03-07T00:20:49;4.25;;;2.50;;
48114;SDS011;33903;44.704;10.448;2024-03-07T00:23:53;5.18;;;2.92;;
48114;SDS011;33903;44.704;10.448;2024-03-07T00:26:58;5.18;;;2.47;;
48114;SDS011;33903;44.704;10.448;2024-03-07T00:30:02;6.53;;;2.83;;
48114;SDS011;33903;44.704;10.448;2024-03-07T00:33:09;8.40;;;2.85;;
48114;SDS011;33903;44.704;10.448;2024-03-07T00:36:14;4.88;;;2.70;;
48114;SDS011;33903;44.704;10.448;2024-03-07T00:39:19;6.80;;;2.72;;
48114;SDS011;33903;44.704;10.448;2024-03-07T00:42:24;7.20;;;2.90;;
48114;SDS011;33903;44.704;10.448;2024-03-07T00:45:28;5.78;;;3.38;;
48114;SDS011;33903;44.704;10.448;2024-03-07T00:48:32;5.57;;;2.53;;
48114;SDS011;33903;44.704;10.448;2024-03-07T00:51:37;5.80;;;3.10;;
48114;SDS011;33903;44.704;10.448;2024-03-07T00:54:43;8.00;;;3.40;;
48114;SDS011;33903;44.704;10.448;2024-03-07T00:57:48;6.45;;;3.20;;
48114;SDS011;33903;44.704;10.448;2024-03-07T01:00:53;4.80;;;2.55;;
48114;SDS011;33903;44.704;10.448;2024-03-07T01:03:57;4.38;;;2.10;;
48114;SDS011;33903;44.704;10.448;2024-03-07T01:07:02;6.45;;;2.30;;
48114;SDS011;33903;44.704;10.448;2024-03-07T01:10:07;9.05;;;2.60;;
48114;SDS011;33903;44.704;10.448;2024-03-07T01:13:13;5.13;;;2.00;;
48114;SDS011;33903;44.704;10.448;2024-03-07T01:16:22;4.25;;;1.80;;
48114;SDS011;33903;44.704;10.448;2024-03-07T01:19:27;3.05;;;1.52;;
48114;SDS011;33903;44.704;10.448;2024-03-07T01:22:31;3.67;;;1.65;;
48114;SDS011;33903;44.704;10.448;2024-03-07T01:25:35;4.63;;;2.00;;
48114;SDS011;33903;44.704;10.448;2024-03-07T01:28:39;3.47;;;2.22;;
48114;SDS011;33903;44.704;10.448;2024-03-07T01:31:45;4.47;;;2.22;;
48114;SDS011;33903;44.704;10.448;2024-03-07T01:34:50;6.45;;;2.60;;
48114;SDS011;33903;44.704;10.448;2024-03-07T01:37:54;3.45;;;2.15;;
48114;SDS011;33903;44.704;10.448;2024-03-07T01:40:58;3.63;;;2.00;;
48114;SDS011;33903;44.704;10.448;2024-03-07T01:44:03;4.05;;;2.25;;
48114;SDS011;33903;44.704;10.448;2024-03-07T01:47:07;4.75;;;2.20;;
48114;SDS011;33903;44.704;10.448;2024-03-07T01:50:12;4.32;;;1.80;;
48114;SDS011;33903;44.704;10.448;2024-03-07T01:53:18;5.40;;;2.15;;
48114;SDS011;33903;44.704;10.448;2024-03-07T01:56:23;5.20;;;2.72;;
48114;SDS011;33903;44.704;10.448;2024-03-07T01:59:29;5.38;;;2.10;;
48114;SDS011;33903;44.704;10.448;2024-03-07T02:02:34;4.07;;;2.08;;
48114;SDS011;33903;44.704;10.448;2024-03-07T02:05:39;3.97;;;1.73;;
48114;SDS011;33903;44.704;10.448;2024-03-07T02:08:44;7.53;;;2.45;;
48114;SDS011;33903;44.704;10.448;2024-03-07T02:11:49;3.67;;;2.25;;
48114;SDS011;33903;44.704;10.448;2024-03-07T02:14:53;4.20;;;2.10;;
48114;SDS011;33903;44.704;10.448;2024-03-07T02:17:58;7.25;;;2.25;;
48114;SDS011;33903;44.704;10.448;2024-03-07T02:21:05;4.00;;;1.58;;
48114;SDS011;33903;44.704;10.448;2024-03-07T02:24:11;5.63;;;1.60;;
48114;SDS011;33903;44.704;10.448;2024-03-07T02:27:16;2.38;;;1.48;;
48114;SDS011;33903;44.704;10.448;2024-03-07T02:30:21;5.43;;;1.98;;
48114;SDS011;33903;44.704;10.448;2024-03-07T02:33:25;5.38;;;2.00;;
48114;SDS011;33903;44.704;10.448;2024-03-07T02:36:29;5.50;;;2.10;;
48114;SDS011;33903;44.704;10.448;2024-03-07T02:39:35;5.00;;;1.60;;
48114;SDS011;33903;44.704;10.448;2024-03-07T02:42:40;3.22;;;1.83;;
48114;SDS011;33903;44.704;10.448;2024-03-07T02:45:45;3.17;;;1.90;;
48114;SDS011;33903;44.704;10.448;2024-03-07T02:48:49;3.28;;;1.52;;
48114;SDS011;33903;44.704;10.448;2024-03-07T02:51:53;9.85;;;1.90;;
48114;SDS011;33903;44.704;10.448;2024-03-07T02:55:01;7.28;;;1.80;;
48114;SDS011;33903;44.704;10.448;2024-03-07T02:58:09;3.83;;;2.00;;
48114;SDS011;33903;44.704;10.448;2024-03-07T03:01:14;3.97;;;1.98;;
48114;SDS011;33903;44.704;10.448;2024-03-07T03:04:18;4.82;;;1.92;;
48114;SDS011;33903;44.704;10.448;2024-03-07T03:07:23;3.30;;;1.98;;
48114;SDS011;33903;44.704;10.448;2024-03-07T03:10:27;8.15;;;2.40;;
48114;SDS011;33903;44.704;10.448;2024-03-07T03:13:34;6.07;;;2.03;;
48114;SDS011;33903;44.704;10.448;2024-03-07T03:16:42;4.00;;;2.15;;
48114;SDS011;33903;44.704;10.448;2024-03-07T03:19:47;7.97;;;2.33;;
48114;SDS011;33903;44.704;10.448;2024-03-07T03:22:53;6.53;;;2.00;;
48114;SDS011;33903;44.704;10.448;2024-03-07T03:25:58;6.38;;;2.35;;
48114;SDS011;33903;44.704;10.448;2024-03-07T03:29:03;5.47;;;2.28;;
48114;SDS011;33903;44.704;10.448;2024-03-07T03:32:08;5.55;;;2.60;;
48114;SDS011;33903;44.704;10.448;2024-03-07T03:35:12;4.93;;;2.50;;
48114;SDS011;33903;44.704;10.448;2024-03-07T03:38:18;7.40;;;2.55;;
48114;SDS011;33903;44.704;10.448;2024-03-07T03:41:23;4.88;;;2.25;;
48114;SDS011;33903;44.704;10.448;2024-03-07T03:44:27;6.60;;;2.33;;
48114;SDS011;33903;44.704;10.448;2024-03-07T03:47:37;5.25;;;2.30;;
48114;SDS011;33903;44.704;10.448;2024-03-07T03:50:42;5.50;;;2.33;;
48114;SDS011;33903;44.704;10.448;2024-03-07T03:53:46;4.70;;;2.28;;
48114;SDS011;33903;44.704;10.448;2024-03-07T03:56:50;3.83;;;2.08;;
48114;SDS011;33903;44.704;10.448;2024-03-07T03:59:55;8.43;;;2.60;;
48114;SDS011;33903;44.704;10.448;2024-03-07T04:03:00;8.15;;;2.30;;
48114;SDS011;33903;44.704;10.448;2024-03-07T04:06:04;11.10;;;3.25;;
48114;SDS011;33903;44.704;10.448;2024-03-07T04:09:09;4.18;;;2.08;;
48114;SDS011;33903;44.704;10.448;2024-03-07T04:12:14;5.78;;;2.60;;
48114;SDS011;33903;44.704;10.448;2024-03-07T04:15:19;4.43;;;2.00;;
48114;SDS011;33903;44.704;10.448;2024-03-07T04:18:24;3.83;;;2.03;;
48114;SDS011;33903;44.704;10.448;2024-03-07T04:21:30;8.35;;;2.15;;
48114;SDS011;33903;44.704;10.448;2024-03-07T04:24:35;3.63;;;2.33;;
48114;SDS011;33903;44.704;10.448;2024-03-07T04:27:40;8.23;;;2.47;;
48114;SDS011;33903;44.704;10.448;2024-03-07T04:30:44;6.68;;;2.88;;
48114;SDS011;33903;44.704;10.448;2024-03-07T04:33:49;4.70;;;2.20;;
48114;SDS011;33903;44.704;10.448;2024-03-07T04:36:54;6.10;;;2.45;;
48114;SDS011;33903;44.704;10.448;2024-03-07T04:40:02;6.68;;;2.80;;
48114;SDS011;33903;44.704;10.448;2024-03-07T04:43:18;8.98;;;2.85;;
48114;SDS011;33903;44.704;10.448;2024-03-07T04:46:24;4.88;;;2.03;;
48114;SDS011;33903;44.704;10.448;2024-03-07T04:49:30;4.15;;;2.10;;
48114;SDS011;33903;44.704;10.448;2024-03-07T04:52:35;4.07;;;2.10;;
48114;SDS011;33903;44.704;10.448;2024-03-07T04:55:44;8.32;;;2.72;;
48114;SDS011;33903;44.704;10.448;2024-03-07T04:58:49;6.93;;;2.35;;
48114;SDS011;33903;44.704;10.448;2024-03-07T05:01:54;4.38;;;1.98;;
48114;SDS011;33903;44.704;10.448;2024-03-07T05:04:58;5.78;;;2.20;;
48114;SDS011;33903;44.704;10.448;2024-03-07T05:08:03;6.22;;;2.58;;
48114;SDS011;33903;44.704;10.448;2024-03-07T05:11:08;3.42;;;1.90;;
48114;SDS011;33903;44.704;10.448;2024-03-07T05:14:13;10.50;;;2.20;;
48114;SDS011;33903;44.704;10.448;2024-03-07T05:17:17;5.25;;;2.47;;
48114;SDS011;33903;44.704;10.448;2024-03-07T05:20:23;9.48;;;2.75;;
48114;SDS011;33903;44.704;10.448;2024-03-07T05:23:28;5.38;;;1.95;;
48114;SDS011;33903;44.704;10.448;2024-03-07T05:26:35;7.80;;;2.80;;
48114;SDS011;33903;44.704;10.448;2024-03-07T05:29:45;3.58;;;2.20;;
48114;SDS011;33903;44.704;10.448;2024-03-07T05:32:53;5.10;;;2.40;;
48114;SDS011;33903;44.704;10.448;2024-03-07T05:35:58;5.32;;;2.47;;
48114;SDS011;33903;44.704;10.448;2024-03-07T05:39:17;12.02;;;3.80;;
48114;SDS011;33903;44.704;10.448;2024-03-07T05:42:23;4.80;;;2.20;;
48114;SDS011;33903;44.704;10.448;2024-03-07T05:45:28;3.70;;;2.00;;
48114;SDS011;33903;44.704;10.448;2024-03-07T05:48:33;11.25;;;2.72;;
48114;SDS011;33903;44.704;10.448;2024-03-07T05:51:38;6.72;;;2.53;;
48114;SDS011;33903;44.704;10.448;2024-03-07T05:54:42;4.95;;;2.03;;
48114;SDS011;33903;44.704;10.448;2024-03-07T05:57:48;8.68;;;2.28;;
48114;SDS011;33903;44.704;10.448;2024-03-07T06:00:53;5.22;;;1.90;;
48114;SDS011;33903;44.704;10.448;2024-03-07T06:03:57;5.22;;;2.28;;
48114;SDS011;33903;44.704;10.448;2024-03-07T06:07:01;4.50;;;2.08;;
48114;SDS011;33903;44.704;10.448;2024-03-07T06:10:06;5.82;;;2.65;;
48114;SDS011;33903;44.704;10.448;2024-03-07T06:13:16;4.88;;;2.63;;
48114;SDS011;33903;44.704;10.448;2024-03-07T06:16:20;7.70;;;2.78;;
48114;SDS011;33903;44.704;10.448;2024-03-07T06:19:25;7.13;;;2.33;;
48114;SDS011;33903;44.704;10.448;2024-03-07T06:22:30;7.97;;;2.97;;
48114;SDS011;33903;44.704;10.448;2024-03-07T06:25:34;6.32;;;2.60;;
48114;SDS011;33903;44.704;10.448;2024-03-07T06:28:50;5.90;;;2.45;;
48114;SDS011;33903;44.704;10.448;2024-03-07T06:31:54;5.95;;;2.30;;
48114;SDS011;33903;44.704;10.448;2024-03-07T06:34:59;6.32;;;2.60;;
48114;SDS011;33903;44.704;10.448;2024-03-07T06:38:05;6.45;;;1.92;;
48114;SDS011;33903;44.704;10.448;2024-03-07T06:41:10;4.43;;;2.28;;
48114;SDS011;33903;44.704;10.448;2024-03-07T06:44:14;5.05;;;1.92;;
48114;SDS011;33903;44.704;10.448;2024-03-07T06:47:19;6.63;;;2.33;;
48114;SDS011;33903;44.704;10.448;2024-03-07T06:50:24;4.65;;;1.98;;
48114;SDS011;33903;44.704;10.448;2024-03-07T06:53:28;6.60;;;2.20;;
48114;SDS011;33903;44.704;10.448;2024-03-07T06:56:34;7.13;;;2.40;;
48114;SDS011;33903;44.704;10.448;2024-03-07T06:59:19;5.25;;;1.90;;
48114;SDS011;33903;44.704;10.448;2024-03-07T07:02:24;8.13;;;3.75;;
48114;SDS011;33903;44.704;10.448;2024-03-07T07:05:33;7.22;;;2.60;;
48114;SDS011;33903;44.704;10.448;2024-03-07T07:08:38;5.55;;;2.13;;
48114;SDS011;33903;44.704;10.448;2024-03-07T07:11:43;6.78;;;1.85;;
48114;SDS011;33903;44.704;10.448;2024-03-07T07:14:49;4.13;;;2.10;;
48114;SDS011;33903;44.704;10.448;2024-03-07T07:17:54;6.72;;;1.65;;
48114;SDS011;33903;44.704;10.448;2024-03-07T07:20:59;4.90;;;2.13;;
48114;SDS011;33903;44.704;10.448;2024-03-07T07:24:06;8.00;;;2.63;;
48114;SDS011;33903;44.704;10.448;2024-03-07T07:27:10;5.95;;;2.00;;
48114;SDS011;33903;44.704;10.448;2024-03-07T07:30:16;5.30;;;2.20;;
48114;SDS011;33903;44.704;10.448;2024-03-07T07:33:23;10.25;;;3.30;;
48114;SDS011;33903;44.704;10.448;2024-03-07T07:36:28;11.27;;;7.25;;
48114;SDS011;33903;44.704;10.448;2024-03-07T07:39:33;12.25;;;6.53;;
48114;SDS011;33903;44.704;10.448;2024-03-07T07:42:37;6.38;;;3.45;;
48114;SDS011;33903;44.704;10.448;2024-03-07T07:45:42;9.02;;;3.50;;
48114;SDS011;33903;44.704;10.448;2024-03-07T07:48:47;11.35;;;4.15;;
48114;SDS011;33903;44.704;10.448;2024-03-07T07:51:51;7.28;;;2.95;;
48114;SDS011;33903;44.704;10.448;2024-03-07T07:54:57;6.60;;;2.47;;
48114;SDS011;33903;44.704;10.448;2024-03-07T07:58:03;9.77;;;2.30;;
48114;SDS011;33903;44.704;10.448;2024-03-07T08:01:10;4.57;;;2.42;;
48114;SDS011;33903;44.704;10.448;2024-03-07T08:04:14;6.78;;;3.10;;
48114;SDS011;33903;44.704;10.448;2024-03-07T08:07:19;7.80;;;3.40;;
48114;SDS011;33903;44.704;10.448;2024-03-07T08:10:24;6.97;;;2.78;;
48114;SDS011;33903;44.704;10.448;2024-03-07T08:13:34;8.20;;;2.58;;
48114;SDS011;33903;44.704;10.448;2024-03-07T08:16:39;6.30;;;2.38;;
48114;SDS011;33903;44.704;10.448;2024-03-07T08:19:46;6.00;;;2.53;;
48114;SDS011;33903;44.704;10.448;2024-03-07T08:22:51;6.07;;;2.60;;
48114;SDS011;33903;44.704;10.448;2024-03-07T08:25:57;5.32;;;2.45;;
48114;SDS011;33903;44.704;10.448;2024-03-07T08:29:01;6.90;;;2.42;;
48114;SDS011;33903;44.704;10.448;2024-03-07T08:32:07;4.72;;;2.17;;
48114;SDS011;33903;44.704;10.448;2024-03-07T08:35:12;5.90;;;2.33;;
48114;SDS011;33903;44.704;10.448;2024-03-07T08:38:17;5.75;;;2.08;;
48114;SDS011;33903;44.704;10.448;2024-03-07T08:41:22;5.45;;;2.20;;
48114;SDS011;33903;44.704;10.448;2024-03-07T08:44:27;7.75;;;2.20;;
48114;SDS011;33903;44.704;10.448;2024-03-07T08:47:34;7.80;;;2.63;;
48114;SDS011;33903;44.704;10.448;2024-03-07T08:50:41;4.90;;;2.83;;
48114;SDS011;33903;44.704;10.448;2024-03-07T08:53:46;5.45;;;2.60;;
48114;SDS011;33903;44.704;10.448;2024-03-07T08:56:50;6.22;;;2.90;;
48114;SDS011;33903;44.704;10.448;2024-03-07T08:59:55;8.65;;;3.55;;
48114;SDS011;33903;44.704;10.448;2024-03-07T09:02:59;7.63;;;3.20;;
48114;SDS011;33903;44.704;10.448;2024-03-07T09:06:07;7.20;;;2.70;;
48114;SDS011;33903;44.704;10.448;2024-03-07T09:09:11;5.85;;;1.85;;
48114;SDS011;33903;44.704;10.448;2024-03-07T09:12:18;4.40;;;2.00;;
48114;SDS011;33903;44.704;10.448;2024-03-07T09:15:24;4.40;;;1.70;;
48114;SDS011;33903;44.704;10.448;2024-03-07T09:18:29;6.72;;;1.92;;
48114;SDS011;33903;44.704;10.448;2024-03-07T09:21:34;9.05;;;3.75;;
48114;SDS011;33903;44.704;10.448;2024-03-07T09:24:38;4.88;;;2.15;;
48114;SDS011;33903;44.704;10.448;2024-03-07T09:27:43;4.22;;;1.88;;
48114;SDS011;33903;44.704;10.448;2024-03-07T09:30:48;5.70;;;2.30;;
48114;SDS011;33903;44.704;10.448;2024-03-07T09:33:52;6.55;;;2.20;;
48114;SDS011;33903;44.704;10.448;2024-03-07T09:36:58;5.22;;;1.95;;
48114;SDS011;33903;44.704;10.448;2024-03-07T09:40:03;10.00;;;6.32;;
48114;SDS011;33903;44.704;10.448;2024-03-07T09:43:09;16.02;;;10.55;;
48114;SDS011;33903;44.704;10.448;2024-03-07T09:46:18;6.00;;;3.40;;
48114;SDS011;33903;44.704;10.448;2024-03-07T09:49:24;5.78;;;2.22;;
48114;SDS011;33903;44.704;10.448;2024-03-07T09:52:29;8.02;;;2.70;;
48114;SDS011;33903;44.704;10.448;2024-03-07T09:55:35;5.90;;;2.00;;
48114;SDS011;33903;44.704;10.448;2024-03-07T09:58:40;5.30;;;1.70;;
48114;SDS011;33903;44.704;10.448;2024-03-07T10:01:47;5.25;;;1.85;;
48114;SDS011;33903;44.704;10.448;2024-03-07T10:04:54;6.28;;;3.10;;
48114;SDS011;33903;44.704;10.448;2024-03-07T10:08:00;8.65;;;2.40;;
48114;SDS011;33903;44.704;10.448;2024-03-07T10:11:05;4.93;;;2.22;;
48114;SDS011;33903;44.704;10.448;2024-03-07T10:14:12;3.20;;;1.75;;
48114;SDS011;33903;44.704;10.448;2024-03-07T10:17:17;4.22;;;1.48;;
48114;SDS011;33903;44.704;10.448;2024-03-07T10:20:22;5.38;;;1.60;;
48114;SDS011;33903;44.704;10.448;2024-03-07T10:23:28;5.05;;;2.03;;
48114;SDS011;33903;44.704;10.448;2024-03-07T10:26:36;4.60;;;1.63;;
48114;SDS011;33903;44.704;10.448;2024-03-07T10:29:41;3.38;;;1.38;;
48114;SDS011;33903;44.704;10.448;2024-03-07T10:32:55;4.00;;;1.70;;
48114;SDS011;33903;44.704;10.448;2024-03-07T10:36:01;6.70;;;1.90;;
48114;SDS011;33903;44.704;10.448;2024-03-07T10:39:06;5.05;;;1.88;;
48114;SDS011;33903;44.704;10.448;2024-03-07T10:42:19;6.20;;;1.90;;
48114;SDS011;33903;44.704;10.448;2024-03-07T10:45:29;6.93;;;2.28;;
48114;SDS011;33903;44.704;10.448;2024-03-07T10:48:36;4.50;;;2.67;;
48114;SDS011;33903;44.704;10.448;2024-03-07T10:51:46;5.03;;;2.50;;
48114;SDS011;33903;44.704;10.448;2024-03-07T11:05:04;3.83;;;1.80;;
48114;SDS011;33903;44.704;10.448;2024-03-07T11:08:12;3.70;;;1.83;;
48114;SDS011;33903;44.704;10.448;2024-03-07T11:11:17;5.50;;;1.83;;
48114;SDS011;33903;44.704;10.448;2024-03-07T11:14:22;5.63;;;1.98;;
48114;SDS011;33903;44.704;10.448;2024-03-07T11:17:28;3.85;;;1.70;;
48114;SDS011;33903;44.704;10.448;2024-03-07T11:20:37;5.78;;;2.17;;
48114;SDS011;33903;44.704;10.448;2024-03-07T11:23:44;6.00;;;1.90;;
48114;SDS011;33903;44.704;10.448;2024-03-07T11:26:50;4.45;;;1.77;;
48114;SDS011;33903;44.704;10.448;2024-03-07T11:29:58;3.13;;;1.98;;
48114;SDS011;33903;44.704;10.448;2024-03-07T11:33:12;3.80;;;1.40;;
48114;SDS011;33903;44.704;10.448;2024-03-07T11:36:41;6.22;;;2.13;;
48114;SDS011;33903;44.704;10.448;2024-03-07T11:39:47;4.18;;;1.60;;
48114;SDS011;33903;44.704;10.448;2024-03-07T11:42:53;3.05;;;1.42;;
48114;SDS011;33903;44.704;10.448;2024-03-07T11:46:03;5.20;;;2.25;;
48114;SDS011;33903;44.704;10.448;2024-03-07T11:49:15;4.60;;;2.25;;
48114;SDS011;33903;44.704;10.448;2024-03-07T11:52:19;4.25;;;2.00;;
48114;SDS011;33903;44.704;10.448;2024-03-07T11:55:24;3.83;;;2.22;;
48114;SDS011;33903;44.704;10.448;2024-03-07T11:58:29;5.13;;;2.10;;
48114;SDS011;33903;44.704;10.448;2024-03-07T12:01:35;5.40;;;2.72;;
48114;SDS011;33903;44.704;10.448;2024-03-07T12:04:40;4.82;;;2.28;;
48114;SDS011;33903;44.704;10.448;2024-03-07T12:07:45;5.38;;;2.00;;
48114;SDS011;33903;44.704;10.448;2024-03-07T12:10:51;4.43;;;2.42;;
48114;SDS011;33903;44.704;10.448;2024-03-07T12:14:00;6.57;;;2.15;;
48114;SDS011;33903;44.704;10.448;2024-03-07T12:17:07;4.05;;;2.33;;
48114;SDS011;33903;44.704;10.448;2024-03-07T12:20:12;4.65;;;1.80;;
48114;SDS011;33903;44.704;10.448;2024-03-07T12:23:29;5.93;;;1.80;;
48114;SDS011;33903;44.704;10.448;2024-03-07T12:26:34;4.32;;;2.17;;
48114;SDS011;33903;44.704;10.448;2024-03-07T12:29:39;3.75;;;1.80;;
48114;SDS011;33903;44.704;10.448;2024-03-07T12:32:47;4.70;;;1.95;;
48114;SDS011;33903;44.704;10.448;2024-03-07T12:35:53;5.75;;;2.20;;
48114;SDS011;33903;44.704;10.448;2024-03-07T12:39:04;3.75;;;2.00;;
48114;SDS011;33903;44.704;10.448;2024-03-07T12:42:28;7.45;;;2.88;;
48114;SDS011;33903;44.704;10.448;2024-03-07T12:45:33;4.20;;;2.08;;
48114;SDS011;33903;44.704;10.448;2024-03-07T12:48:38;4.53;;;2.30;;
48114;SDS011;33903;44.704;10.448;2024-03-07T12:51:44;4.20;;;2.25;;
48114;SDS011;33903;44.704;10.448;2024-03-07T12:54:48;5.38;;;2.25;;
48114;SDS011;33903;44.704;10.448;2024-03-07T12:57:54;4.47;;;2.65;;
48114;SDS011;33903;44.704;10.448;2024-03-07T13:00:58;4.32;;;2.55;;
48114;SDS011;33903;44.704;10.448;2024-03-07T13:04:04;4.80;;;2.50;;
48114;SDS011;33903;44.704;10.448;2024-03-07T13:07:13;6.57;;;2.15;;
48114;SDS011;33903;44.704;10.448;2024-03-07T13:10:19;6.22;;;2.45;;
48114;SDS011;33903;44.704;10.448;2024-03-07T13:13:24;2.88;;;2.00;;
48114;SDS011;33903;44.704;10.448;2024-03-07T13:16:29;6.82;;;2.33;;
48114;SDS011;33903;44.704;10.448;2024-03-07T13:19:34;4.03;;;2.42;;
48114;SDS011;33903;44.704;10.448;2024-03-07T13:22:43;4.90;;;2.45;;
48114;SDS011;33903;44.704;10.448;2024-03-07T13:25:55;8.88;;;2.55;;
48114;SDS011;33903;44.704;10.448;2024-03-07T13:29:00;5.20;;;2.65;;
48114;SDS011;33903;44.704;10.448;2024-03-07T13:32:05;5.53;;;3.13;;
48114;SDS011;33903;44.704;10.448;2024-03-07T13:35:11;6.55;;;2.75;;
48114;SDS011;33903;44.704;10.448;2024-03-07T13:38:15;7.18;;;3.00;;
48114;SDS011;33903;44.704;10.448;2024-03-07T13:41:20;5.55;;;3.05;;
48114;SDS011;33903;44.704;10.448;2024-03-07T13:44:24;4.45;;;2.55;;
48114;SDS011;33903;44.704;10.448;2024-03-07T13:47:31;4.88;;;2.28;;
48114;SDS011;33903;44.704;10.448;2024-03-07T13:50:36;4.45;;;2.38;;
48114;SDS011;33903;44.704;10.448;2024-03-07T13:53:48;5.35;;;2.28;;
48114;SDS011;33903;44.704;10.448;2024-03-07T13:56:58;5.40;;;2.13;;
48114;SDS011;33903;44.704;10.448;2024-03-07T14:00:18;3.03;;;1.60;;
48114;SDS011;33903;44.704;10.448;2024-03-07T14:21:22;4.82;;;3.13;;
48114;SDS011;33903;44.704;10.448;2024-03-07T14:32:12;6.80;;;2.90;;
48114;SDS011;33903;44.704;10.448;2024-03-07T14:38:52;7.35;;;3.05;;
48114;SDS011;33903;44.704;10.448;2024-03-07T14:41:58;5.00;;;2.42;;
48114;SDS011;33903;44.704;10.448;2024-03-07T14:45:08;5.65;;;2.97;;
48114;SDS011;33903;44.704;10.448;2024-03-07T14:48:17;6.25;;;2.72;;
48114;SDS011;33903;44.704;10.448;2024-03-07T14:51:23;5.75;;;2.50;;
48114;SDS011;33903;44.704;10.448;2024-03-07T14:54:29;4.20;;;2.60;;
48114;SDS011;33903;44.704;10.448;2024-03-07T15:00:52;6.55;;;2.30;;
48114;SDS011;33903;44.704;10.448;2024-03-07T15:03:58;5.38;;;2.42;;
48114;SDS011;33903;44.704;10.448;2024-03-07T15:07:03;3.22;;;1.75;;
48114;SDS011;33903;44.704;10.448;2024-03-07T15:10:08;3.88;;;1.60;;
48114;SDS011;33903;44.704;10.448;2024-03-07T15:13:24;2.55;;;1.70;;
48114;SDS011;33903;44.704;10.448;2024-03-07T15:16:29;8.60;;;2.70;;
48114;SDS011;33903;44.704;10.448;2024-03-07T15:19:38;8.80;;;2.30;;
48114;SDS011;33903;44.704;10.448;2024-03-07T15:22:43;9.93;;;2.10;;
48114;SDS011;33903;44.704;10.448;2024-03-07T15:25:50;8.07;;;1.95;;
48114;SDS011;33903;44.704;10.448;2024-03-07T15:28:54;5.07;;;1.90;;
48114;SDS011;33903;44.704;10.448;2024-03-07T15:31:59;10.20;;;2.53;;
48114;SDS011;33903;44.704;10.448;2024-03-07T15:35:03;6.80;;;2.00;;
48114;SDS011;33903;44.704;10.448;2024-03-07T15:38:13;11.00;;;2.55;;
48114;SDS011;33903;44.704;10.448;2024-03-07T15:41:20;3.78;;;1.80;;
48114;SDS011;33903;44.704;10.448;2024-03-07T15:44:25;4.32;;;2.28;;
48114;SDS011;33903;44.704;10.448;2024-03-07T15:47:30;6.07;;;2.45;;
48114;SDS011;33903;44.704;10.448;2024-03-07T15:50:36;3.80;;;1.90;;
48114;SDS011;33903;44.704;10.448;2024-03-07T15:53:41;8.15;;;2.20;;
48114;SDS011;33903;44.704;10.448;2024-03-07T15:56:46;4.15;;;1.83;;
48114;SDS011;33903;44.704;10.448;2024-03-07T15:59:52;4.75;;;2.30;;
48114;SDS011;33903;44.704;10.448;2024-03-07T16:03:01;5.85;;;2.40;;
48114;SDS011;33903;44.704;10.448;2024-03-07T16:06:16;4.63;;;2.40;;
48114;SDS011;33903;44.704;10.448;2024-03-07T16:09:20;3.28;;;2.10;;
48114;SDS011;33903;44.704;10.448;2024-03-07T16:12:26;4.70;;;2.42;;
48114;SDS011;33903;44.704;10.448;2024-03-07T16:15:31;5.40;;;2.17;;
48114;SDS011;33903;44.704;10.448;2024-03-07T16:18:36;4.90;;;2.20;;
48114;SDS011;33903;44.704;10.448;2024-03-07T16:21:43;4.68;;;2.25;;
48114;SDS011;33903;44.704;10.448;2024-03-07T16:24:49;5.13;;;2.22;;
48114;SDS011;33903;44.704;10.448;2024-03-07T16:27:57;5.45;;;2.40;;
48114;SDS011;33903;44.704;10.448;2024-03-07T16:31:02;6.00;;;2.47;;
48114;SDS011;33903;44.704;10.448;2024-03-07T16:34:08;4.43;;;2.17;;
48114;SDS011;33903;44.704;10.448;2024-03-07T16:37:15;12.20;;;3.95;;
48114;SDS011;33903;44.704;10.448;2024-03-07T16:40:23;6.15;;;2.60;;
48114;SDS011;33903;44.704;10.448;2024-03-07T16:43:29;7.82;;;2.58;;
48114;SDS011;33903;44.704;10.448;2024-03-07T16:46:34;3.60;;;1.65;;
48114;SDS011;33903;44.704;10.448;2024-03-07T16:49:40;5.78;;;2.72;;
48114;SDS011;33903;44.704;10.448;2024-03-07T16:52:45;5.72;;;2.35;;
48114;SDS011;33903;44.704;10.448;2024-03-07T16:55:52;4.10;;;2.10;;
48114;SDS011;33903;44.704;10.448;2024-03-07T16:58:57;6.75;;;2.50;;
48114;SDS011;33903;44.704;10.448;2024-03-07T17:02:01;6.20;;;2.15;;
48114;SDS011;33903;44.704;10.448;2024-03-07T17:05:06;2.50;;;1.70;;
48114;SDS011;33903;44.704;10.448;2024-03-07T17:08:19;8.33;;;2.00;;
48114;SDS011;33903;44.704;10.448;2024-03-07T17:11:27;4.50;;;1.98;;
48114;SDS011;33903;44.704;10.448;2024-03-07T17:14:33;5.80;;;2.22;;
48114;SDS011;33903;44.704;10.448;2024-03-07T17:17:44;5.35;;;2.17;;
48114;SDS011;33903;44.704;10.448;2024-03-07T17:20:56;6.63;;;2.42;;
48114;SDS011;33903;44.704;10.448;2024-03-07T17:24:01;7.45;;;2.65;;
48114;SDS011;33903;44.704;10.448;2024-03-07T17:27:06;4.57;;;2.60;;
48114;SDS011;33903;44.704;10.448;2024-03-07T17:30:10;6.57;;;3.10;;
48114;SDS011;33903;44.704;10.448;2024-03-07T17:33:16;5.75;;;3.10;;
48114;SDS011;33903;44.704;10.448;2024-03-07T17:36:20;9.20;;;4.05;;
48114;SDS011;33903;44.704;10.448;2024-03-07T17:39:25;5.22;;;3.03;;
48114;SDS011;33903;44.704;10.448;2024-03-07T17:42:30;12.70;;;4.55;;
48114;SDS011;33903;44.704;10.448;2024-03-07T17:45:34;7.47;;;3.40;;
48114;SDS011;33903;44.704;10.448;2024-03-07T17:48:39;8.63;;;3.40;;
48114;SDS011;33903;44.704;10.448;2024-03-07T17:51:44;7.90;;;3.53;;
48114;SDS011;33903;44.704;10.448;2024-03-07T17:54:49;10.65;;;4.50;;
48114;SDS011;33903;44.704;10.448;2024-03-07T17:57:54;4.88;;;3.50;;
48114;SDS011;33903;44.704;10.448;2024-03-07T18:01:01;7.18;;;3.65;;
48114;SDS011;33903;44.704;10.448;2024-03-07T18:04:09;9.70;;;4.97;;
48114;SDS011;33903;44.704;10.448;2024-03-07T18:07:13;8.35;;;5.05;;
48114;SDS011;33903;44.704;10.448;2024-03-07T18:10:19;7.57;;;4.40;;
48114;SDS011;33903;44.704;10.448;2024-03-07T18:13:24;13.70;;;4.82;;
48114;SDS011;33903;44.704;10.448;2024-03-07T18:16:29;8.93;;;4.45;;
48114;SDS011;33903;44.704;10.448;2024-03-07T18:19:36;9.38;;;5.03;;
48114;SDS011;33903;44.704;10.448;2024-03-07T18:22:40;12.48;;;5.85;;
48114;SDS011;33903;44.704;10.448;2024-03-07T18:25:46;7.72;;;5.13;;
48114;SDS011;33903;44.704;10.448;2024-03-07T18:28:50;9.82;;;6.07;;
48114;SDS011;33903;44.704;10.448;2024-03-07T18:31:56;8.43;;;5.57;;
48114;SDS011;33903;44.704;10.448;2024-03-07T18:35:01;13.57;;;6.15;;
48114;SDS011;33903;44.704;10.448;2024-03-07T18:38:07;12.40;;;6.25;;
48114;SDS011;33903;44.704;10.448;2024-03-07T18:41:11;13.10;;;7.40;;
48114;SDS011;33903;44.704;10.448;2024-03-07T18:44:16;9.90;;;6.10;;
48114;SDS011;33903;44.704;10.448;2024-03-07T18:47:20;17.73;;;6.95;;
48114;SDS011;33903;44.704;10.448;2024-03-07T18:50:25;19.75;;;8.20;;
48114;SDS011;33903;44.704;10.448;2024-03-07T18:53:30;20.23;;;12.38;;
48114;SDS011;33903;44.704;10.448;2024-03-07T18:56:37;18.70;;;11.20;;
48114;SDS011;33903;44.704;10.448;2024-03-07T18:59:44;15.10;;;9.30;;
48114;SDS011;33903;44.704;10.448;2024-03-07T19:02:48;13.60;;;8.02;;
48114;SDS011;33903;44.704;10.448;2024-03-07T19:05:55;28.02;;;16.35;;